Time;durP1;ratioP1;P1;durP2;ratioP2;P2;SDS_P1;SDS_P2;PMS_P1;PMS_P2;Temp;Humidity;BMP_temperature;BMP_pressure;BME280_temperature;BME280_humidity;BME280_pressure;Samples;Min_cycle;Max_cycle;Signal;HPM_P1;HPM_P2
2021/12/16 00:01:53;;;;;;;2.22;1.10;;;20.10;62.90;;;;;;5027185;28;20250;-47
2021/12/16 00:07:27;;;;;;;1.42;0.85;;;20.10;62.90;;;;;;5024159;28;20297;-47
2021/12/16 00:10:09;;;;;;;1.13;0.93;;;20.20;62.90;;;;;;5027627;28;20235;-50
2021/12/16 00:32:45;;;;;;;1.02;0.93;;;20.30;62.80;;;;;;5030580;28;20244;-61
2021/12/16 00:35:17;;;;;;;1.40;0.90;;;20.30;62.70;;;;;;5040176;28;20279;-54
2021/12/16 00:37:49;;;;;;;1.17;0.88;;;20.30;62.70;;;;;;5029376;28;20372;-56
2021/12/16 00:40:20;;;;;;;1.08;0.98;;;20.30;62.60;;;;;;5029867;28;20231;-52
2021/12/16 00:42:54;;;;;;;1.00;0.70;;;20.30;62.70;;;;;;5028521;28;20275;-56
2021/12/16 00:45:36;;;;;;;3.13;0.80;;;20.30;62.60;;;;;;5031404;28;20203;-62
2021/12/16 00:48:23;;;;;;;1.73;0.80;;;20.30;62.60;;;;;;5031675;28;20216;-47
2021/12/16 00:56:30;;;;;;;0.90;0.80;;;20.30;62.60;;;;;;5028839;28;20223;-58
2021/12/16 00:59:03;;;;;;;1.83;1.00;;;20.30;62.60;;;;;;5031729;28;20248;-52
2021/12/16 01:01:42;;;;;;;1.65;0.82;;;20.30;62.50;;;;;;5031222;28;20204;-53
2021/12/16 01:04:40;;;;;;;1.63;0.93;;;20.40;62.60;;;;;;5030110;28;20290;-58
2021/12/16 01:07:34;;;;;;;1.05;0.93;;;20.40;63.30;;;;;;5029681;28;20224;-51
2021/12/16 01:35:20;;;;;;;2.50;1.23;;;20.50;62.40;;;;;;5024210;28;20223;-60
2021/12/16 01:41:12;;;;;;;6.25;1.50;;;20.50;62.50;;;;;;5008193;28;20206;-58
2021/12/16 01:49:36;;;;;;;2.17;1.10;;;20.50;62.40;;;;;;5026913;28;20231;-59
2021/12/16 01:52:29;;;;;;;2.17;1.30;;;20.50;62.50;;;;;;5031433;28;20193;-59
2021/12/16 01:55:08;;;;;;;2.53;1.17;;;20.50;62.40;;;;;;5029859;28;20247;-61
2021/12/16 01:57:43;;;;;;;3.08;1.40;;;20.50;62.40;;;;;;5029045;28;20286;-61
2021/12/16 02:00:26;;;;;;;2.10;1.10;;;20.50;62.40;;;;;;5027744;28;20199;-61
2021/12/16 02:03:02;;;;;;;3.17;1.23;;;20.60;62.50;;;;;;5031344;28;20192;-62
2021/12/16 02:08:32;;;;;;;2.72;1.58;;;20.60;62.40;;;;;;5016071;28;20576;-61
2021/12/16 02:11:26;;;;;;;3.95;1.33;;;20.60;62.40;;;;;;5029069;28;20250;-57
2021/12/16 02:28:27;;;;;;;2.75;1.80;;;20.60;62.30;;;;;;4966967;28;20264;-61
2021/12/16 02:31:28;;;;;;;3.60;1.98;;;20.60;62.30;;;;;;5008557;28;20650;-55
2021/12/16 02:36:46;;;;;;;2.28;1.35;;;20.60;62.20;;;;;;5029139;28;20224;-61
2021/12/16 02:39:21;;;;;;;3.28;1.50;;;20.60;62.20;;;;;;5029594;28;20220;-62
2021/12/16 02:41:54;;;;;;;3.65;1.65;;;20.60;62.20;;;;;;5027866;28;20286;-59
2021/12/16 02:44:34;;;;;;;3.22;1.70;;;20.70;62.30;;;;;;5026741;28;20234;-61
2021/12/16 02:49:54;;;;;;;4.47;2.05;;;20.70;62.20;;;;;;5029650;28;20859;-57
2021/12/16 02:52:26;;;;;;;3.17;1.85;;;20.70;62.20;;;;;;5028372;28;20283;-58
2021/12/16 02:54:59;;;;;;;2.95;1.73;;;20.70;62.20;;;;;;5027984;28;20235;-62
2021/12/16 02:57:31;;;;;;;3.35;1.75;;;20.70;62.20;;;;;;5027910;28;20287;-57
2021/12/16 03:00:02;;;;;;;2.95;1.73;;;20.80;62.20;;;;;;5028338;28;20188;-53
2021/12/16 03:02:33;;;;;;;3.10;1.88;;;20.70;62.10;;;;;;5028034;28;20200;-59
2021/12/16 03:05:03;;;;;;;4.10;1.75;;;20.80;62.20;;;;;;5026048;28;20192;-58
2021/12/16 03:07:34;;;;;;;2.40;1.85;;;20.80;62.20;;;;;;5028567;28;20251;-60
2021/12/16 03:10:54;;;;;;;2.85;1.88;;;20.80;62.20;;;;;;5028155;28;20232;-58
2021/12/16 03:13:27;;;;;;;2.75;1.40;;;20.80;62.10;;;;;;5029718;28;20199;-58
2021/12/16 03:16:09;;;;;;;3.55;1.83;;;20.80;62.10;;;;;;5029476;28;20191;-59
2021/12/16 03:18:47;;;;;;;2.50;1.52;;;20.80;62.10;;;;;;5019967;28;20220;-50
2021/12/16 03:21:23;;;;;;;3.83;2.10;;;20.80;62.00;;;;;;5017313;28;20240;-61
2021/12/16 03:24:14;;;;;;;3.75;1.88;;;20.80;62.00;;;;;;5018382;28;20242;-61
2021/12/16 03:27:23;;;;;;;2.83;1.95;;;20.90;62.20;;;;;;5027978;28;20307;-50
2021/12/16 03:32:57;;;;;;;3.95;2.05;;;20.90;62.10;;;;;;5027380;28;20207;-58
2021/12/16 03:35:38;;;;;;;4.28;1.63;;;20.90;62.10;;;;;;5019323;28;20204;-56
2021/12/16 03:38:10;;;;;;;5.07;1.70;;;20.90;62.10;;;;;;5030585;28;20474;-53
2021/12/16 03:40:42;;;;;;;4.22;2.13;;;20.90;62.10;;;;;;5028343;28;20295;-46
2021/12/16 03:43:17;;;;;;;3.08;1.80;;;21.00;62.10;;;;;;5028219;28;20347;-41
2021/12/16 03:48:39;;;;;;;2.67;1.55;;;21.00;62.10;;;;;;5027016;28;20223;-55
2021/12/16 03:51:12;;;;;;;2.50;1.65;;;21.00;62.00;;;;;;5028412;28;20239;-41
2021/12/16 03:53:44;;;;;;;3.13;1.85;;;21.00;62.00;;;;;;5010407;28;20296;-43
2021/12/16 03:56:14;;;;;;;3.65;1.75;;;21.00;62.00;;;;;;5027523;28;20219;-49
2021/12/16 03:58:47;;;;;;;3.58;1.60;;;21.00;62.00;;;;;;5024208;28;20298;-56
2021/12/16 04:01:20;;;;;;;4.03;1.75;;;21.00;62.00;;;;;;5025628;28;20279;-56
2021/12/16 04:03:52;;;;;;;3.08;1.80;;;21.00;62.00;;;;;;5022906;28;20641;-54
2021/12/16 04:06:23;;;;;;;2.97;1.73;;;21.00;62.00;;;;;;5030835;28;20358;-53
2021/12/16 04:08:54;;;;;;;4.10;2.60;;;21.10;62.00;;;;;;5029489;28;20306;-53
2021/12/16 04:11:32;;;;;;;5.07;2.53;;;21.10;61.90;;;;;;5025360;28;20193;-51
2021/12/16 04:14:04;;;;;;;4.22;2.05;;;21.10;61.90;;;;;;5012472;28;20195;-51
2021/12/16 04:16:37;;;;;;;4.72;2.75;;;21.10;62.00;;;;;;5013582;28;20279;-51
2021/12/16 04:19:11;;;;;;;4.43;2.90;;;21.20;62.10;;;;;;5024413;28;20303;-52
2021/12/16 04:21:43;;;;;;;4.78;2.20;;;21.20;62.00;;;;;;5026585;28;20238;-45
2021/12/16 04:24:14;;;;;;;4.63;2.33;;;21.20;61.90;;;;;;5027137;28;20206;-56
2021/12/16 04:26:46;;;;;;;5.18;2.28;;;21.20;61.90;;;;;;5024140;28;20759;-49
2021/12/16 04:29:22;;;;;;;4.22;1.95;;;21.20;61.80;;;;;;5024929;28;20747;-57
2021/12/16 04:31:53;;;;;;;5.32;2.05;;;21.20;61.80;;;;;;5024571;28;20679;-51
2021/12/16 04:34:24;;;;;;;5.60;2.50;;;21.20;61.80;;;;;;5013757;28;20280;-57
2021/12/16 04:36:55;;;;;;;4.70;2.63;;;21.20;61.80;;;;;;5029391;28;20290;-58
2021/12/16 04:39:28;;;;;;;3.35;2.45;;;21.20;61.80;;;;;;5027223;28;20339;-57
2021/12/16 04:41:59;;;;;;;4.32;1.88;;;21.20;61.80;;;;;;5026733;28;20735;-56
2021/12/16 04:44:33;;;;;;;3.60;1.90;;;21.30;61.80;;;;;;5028567;28;20287;-54
2021/12/16 04:47:06;;;;;;;3.40;2.08;;;21.20;61.70;;;;;;5013000;28;20315;-48
2021/12/16 04:49:37;;;;;;;4.68;2.05;;;21.30;61.70;;;;;;5025943;28;20666;-47
2021/12/16 04:52:12;;;;;;;6.53;2.53;;;21.30;61.70;;;;;;5026134;28;20283;-57
2021/12/16 04:54:42;;;;;;;3.80;2.15;;;21.30;61.80;;;;;;5027631;28;20287;-60
2021/12/16 04:57:13;;;;;;;4.05;2.20;;;21.30;61.70;;;;;;5031239;28;20641;-56
2021/12/16 04:59:46;;;;;;;3.45;2.00;;;21.30;61.60;;;;;;5030374;28;20731;-50
2021/12/16 05:02:19;;;;;;;3.75;2.10;;;21.30;61.60;;;;;;5029963;28;20287;-48
2021/12/16 05:04:50;;;;;;;2.92;1.80;;;21.30;61.50;;;;;;5029307;28;20279;-57
2021/12/16 05:07:21;;;;;;;3.72;2.03;;;21.30;61.50;;;;;;5043262;28;20318;-52
2021/12/16 05:10:04;;;;;;;5.43;2.17;;;21.30;61.40;;;;;;5029731;28;20200;-52
2021/12/16 05:12:38;;;;;;;4.05;1.90;;;21.30;61.40;;;;;;5028807;28;20203;-60
2021/12/16 05:15:13;;;;;;;4.40;2.40;;;21.30;61.50;;;;;;5031079;28;20200;-57
2021/12/16 05:17:47;;;;;;;3.35;1.80;;;21.30;61.40;;;;;;5012538;28;20239;-49
2021/12/16 05:20:21;;;;;;;5.00;2.20;;;21.30;61.40;;;;;;5029259;28;20285;-46
2021/12/16 05:25:52;;;;;;;5.70;2.20;;;21.30;61.40;;;;;;5023213;28;20222;-58
2021/12/16 05:28:24;;;;;;;4.13;2.28;;;21.30;61.30;;;;;;5028165;28;20307;-55
2021/12/16 05:30:57;;;;;;;5.13;2.38;;;21.40;61.40;;;;;;5031232;28;20231;-61
2021/12/16 05:33:28;;;;;;;3.60;2.00;;;21.30;61.30;;;;;;5028194;28;20280;-57
2021/12/16 05:36:00;;;;;;;3.28;1.75;;;21.30;61.30;;;;;;5028438;28;20279;-58
2021/12/16 05:38:31;;;;;;;4.80;1.80;;;21.40;61.30;;;;;;5042077;28;20248;-57
2021/12/16 05:41:02;;;;;;;3.65;1.92;;;21.30;61.20;;;;;;5029814;28;20286;-58
2021/12/16 05:43:33;;;;;;;2.97;1.70;;;21.30;61.20;;;;;;5029244;28;20632;-52
2021/12/16 05:46:07;;;;;;;4.43;2.15;;;21.30;61.20;;;;;;5028139;28;20291;-61
2021/12/16 05:48:39;;;;;;;2.15;1.65;;;21.30;61.20;;;;;;5030686;28;20330;-57
2021/12/16 05:51:13;;;;;;;3.55;2.08;;;21.30;61.20;;;;;;5029697;28;20284;-56
2021/12/16 05:53:45;;;;;;;2.92;1.70;;;21.30;61.20;;;;;;5028772;28;20246;-59
2021/12/16 05:56:16;;;;;;;4.43;2.10;;;21.30;61.20;;;;;;5024928;28;20221;-51
2021/12/16 05:58:47;;;;;;;3.47;2.03;;;21.30;61.10;;;;;;5015196;28;20303;-58
2021/12/16 06:01:23;;;;;;;3.05;1.77;;;21.30;61.00;;;;;;5030472;28;20219;-60
2021/12/16 06:03:54;;;;;;;3.17;2.00;;;21.30;61.00;;;;;;5028683;28;20287;-59
2021/12/16 06:06:25;;;;;;;4.53;2.08;;;21.30;61.00;;;;;;5028705;28;20853;-61
2021/12/16 06:08:56;;;;;;;3.67;2.08;;;21.30;61.00;;;;;;5027609;28;20246;-58
2021/12/16 06:11:29;;;;;;;4.50;1.98;;;21.30;61.00;;;;;;5029516;28;20228;-59
2021/12/16 06:14:08;;;;;;;4.60;2.30;;;21.30;61.00;;;;;;5028264;28;20219;-61
2021/12/16 06:22:40;;;;;;;5.72;3.08;;;21.30;61.00;;;;;;5021143;28;20204;-45
2021/12/16 06:28:03;;;;;;;27.35;8.75;;;21.30;61.00;;;;;;5030871;28;20375;-54
2021/12/16 06:30:36;;;;;;;32.50;10.60;;;21.30;61.40;;;;;;5027168;28;20273;-49
2021/12/16 06:33:11;;;;;;;25.73;9.38;;;21.30;61.80;;;;;;5027278;28;20250;-60
2021/12/16 06:35:41;;;;;;;29.92;9.13;;;21.30;62.00;;;;;;5014086;28;20609;-60
2021/12/16 06:38:12;;;;;;;19.05;7.15;;;21.40;62.00;;;;;;5028997;28;20656;-58
2021/12/16 06:40:43;;;;;;;22.52;8.13;;;21.40;61.90;;;;;;5027303;28;20280;-43
2021/12/16 06:43:15;;;;;;;21.77;7.78;;;21.40;61.80;;;;;;5027841;28;20756;-42
2021/12/16 06:45:49;;;;;;;17.90;6.72;;;21.40;61.80;;;;;;5030004;28;20196;-43
2021/12/16 06:48:26;;;;;;;19.52;7.43;;;21.40;61.70;;;;;;5028786;28;20735;-46
2021/12/16 06:51:00;;;;;;;20.77;7.55;;;21.40;61.60;;;;;;5028068;28;20615;-42
2021/12/16 06:53:43;;;;;;;20.90;6.95;;;21.40;61.60;;;;;;5027311;28;20770;-49
2021/12/16 06:56:19;;;;;;;22.90;7.40;;;21.40;61.60;;;;;;5026729;28;20200;-42
2021/12/16 06:59:01;;;;;;;18.60;6.65;;;21.40;61.50;;;;;;5029275;28;20254;-44
2021/12/16 07:01:38;;;;;;;18.63;6.80;;;21.40;61.50;;;;;;5028542;28;20663;-54
2021/12/16 07:04:13;;;;;;;21.73;7.00;;;21.40;61.40;;;;;;5027511;28;20290;-57
2021/12/16 07:06:44;;;;;;;20.70;6.70;;;21.30;61.30;;;;;;5027292;28;20279;-49
2021/12/16 07:09:17;;;;;;;15.45;6.43;;;21.30;61.20;;;;;;5028943;28;20311;-53
2021/12/16 07:11:51;;;;;;;17.95;6.28;;;21.40;61.30;;;;;;5028646;28;20192;-46
2021/12/16 07:14:34;;;;;;;18.27;6.15;;;21.30;61.20;;;;;;5027778;28;20860;-43
2021/12/16 07:17:09;;;;;;;16.13;6.07;;;21.30;61.20;;;;;;5026874;28;20193;-49
2021/12/16 07:19:42;;;;;;;17.10;6.20;;;21.30;61.20;;;;;;5027961;28;20250;-48
2021/12/16 07:22:14;;;;;;;12.20;5.43;;;21.30;61.20;;;;;;5028377;28;20271;-43
2021/12/16 07:24:44;;;;;;;14.02;5.22;;;21.30;61.20;;;;;;5027435;28;20287;-49
2021/12/16 07:27:15;;;;;;;13.82;6.10;;;21.30;61.10;;;;;;5027656;28;20621;-43
2021/12/16 07:29:46;;;;;;;13.68;5.38;;;21.30;61.10;;;;;;5027403;28;20222;-43
2021/12/16 07:32:16;;;;;;;12.65;5.25;;;21.30;61.10;;;;;;5027341;28;20602;-42
2021/12/16 07:34:49;;;;;;;14.68;5.20;;;21.30;61.10;;;;;;5027261;28;20363;-50
2021/12/16 07:37:19;;;;;;;12.18;5.25;;;21.20;61.00;;;;;;5027874;28;20283;-46
2021/12/16 07:39:53;;;;;;;16.35;5.88;;;21.30;61.10;;;;;;5027570;28;20738;-54
2021/12/16 07:42:28;;;;;;;12.50;5.65;;;21.30;61.10;;;;;;5028579;28;20192;-45
2021/12/16 07:44:59;;;;;;;11.18;4.95;;;21.30;61.00;;;;;;5027302;28;20214;-45
2021/12/16 07:47:29;;;;;;;11.68;4.63;;;21.20;60.90;;;;;;5028222;28;20284;-42
2021/12/16 07:50:02;;;;;;;9.80;4.28;;;21.20;61.00;;;;;;5027483;28;20283;-55
2021/12/16 07:52:36;;;;;;;10.65;4.30;;;21.30;61.00;;;;;;5017456;28;20275;-49
2021/12/16 07:55:07;;;;;;;9.75;4.80;;;21.20;61.00;;;;;;5026942;28;20196;-42
2021/12/16 07:57:37;;;;;;;8.23;4.22;;;21.20;61.00;;;;;;5026577;28;20227;-48
2021/12/16 08:00:11;;;;;;;7.95;3.65;;;21.20;61.00;;;;;;5028739;28;20758;-41
2021/12/16 08:02:42;;;;;;;8.98;4.05;;;21.20;60.90;;;;;;5027778;28;20837;-41
2021/12/16 08:05:15;;;;;;;10.25;3.90;;;21.20;61.00;;;;;;5027353;28;20283;-53
2021/12/16 08:07:46;;;;;;;10.15;3.75;;;21.20;61.00;;;;;;5026372;28;20315;-46
2021/12/16 08:10:20;;;;;;;9.63;4.18;;;21.10;61.00;;;;;;5026245;28;20232;-42
2021/12/16 08:12:52;;;;;;;7.70;3.67;;;21.20;60.90;;;;;;5028906;28;20278;-42
2021/12/16 08:15:22;;;;;;;8.60;3.92;;;21.20;60.90;;;;;;5027777;28;20200;-51
2021/12/16 08:17:54;;;;;;;9.70;4.18;;;21.10;60.90;;;;;;5022167;28;20310;-43
2021/12/16 08:20:27;;;;;;;9.65;3.75;;;21.20;61.00;;;;;;5027725;28;20270;-44
2021/12/16 08:22:57;;;;;;;8.10;3.67;;;21.10;60.80;;;;;;5028134;28;20279;-49
2021/12/16 08:25:30;;;;;;;10.40;4.03;;;21.10;60.90;;;;;;5026234;28;20284;-46
2021/12/16 08:28:03;;;;;;;8.75;3.63;;;21.10;60.90;;;;;;5024931;28;20516;-45
2021/12/16 08:30:35;;;;;;;6.32;3.55;;;21.10;60.90;;;;;;5029421;28;20699;-48
2021/12/16 08:33:11;;;;;;;6.38;3.40;;;21.10;60.90;;;;;;5032280;28;20196;-43
2021/12/16 08:35:45;;;;;;;6.75;3.28;;;21.10;60.80;;;;;;5030078;28;20223;-43
2021/12/16 08:38:18;;;;;;;6.28;3.40;;;21.10;60.70;;;;;;5032363;28;20314;-55
2021/12/16 08:40:51;;;;;;;9.77;3.55;;;21.10;60.60;;;;;;5029643;28;20291;-45
2021/12/16 08:43:23;;;;;;;5.60;2.78;;;21.10;60.50;;;;;;5014542;28;20197;-52
2021/12/16 08:45:54;;;;;;;6.45;3.00;;;21.10;60.50;;;;;;5030099;28;20208;-46
2021/12/16 08:48:26;;;;;;;6.32;3.08;;;21.10;60.60;;;;;;5029804;28;20654;-42
2021/12/16 08:50:59;;;;;;;5.95;2.83;;;21.10;60.60;;;;;;5029109;28;20208;-54
2021/12/16 08:53:30;;;;;;;4.75;2.63;;;21.10;60.60;;;;;;5014645;28;20648;-51
2021/12/16 08:56:00;;;;;;;4.38;2.67;;;21.00;60.50;;;;;;5019898;28;20296;-44
2021/12/16 08:58:31;;;;;;;5.50;2.92;;;21.00;60.50;;;;;;5028435;28;20427;-42
2021/12/16 09:01:06;;;;;;;5.45;2.80;;;21.00;60.60;;;;;;5028573;28;20208;-41
2021/12/16 09:03:36;;;;;;;4.90;2.83;;;21.00;60.60;;;;;;5031165;28;20631;-54
2021/12/16 09:06:09;;;;;;;5.15;2.97;;;21.00;60.60;;;;;;5030615;28;20625;-50
2021/12/16 09:08:40;;;;;;;5.50;2.67;;;21.00;60.70;;;;;;5036229;28;20317;-42
2021/12/16 09:11:13;;;;;;;6.75;3.25;;;21.00;60.70;;;;;;5043858;28;20282;-40
2021/12/16 09:13:44;;;;;;;4.93;2.90;;;21.00;60.70;;;;;;5046515;28;20203;-41
2021/12/16 09:16:17;;;;;;;4.75;2.70;;;21.00;60.80;;;;;;5044997;28;20300;-43
2021/12/16 09:18:48;;;;;;;6.97;3.28;;;21.00;60.70;;;;;;5040834;28;20229;-41
2021/12/16 09:21:24;;;;;;;5.20;2.72;;;20.90;60.60;;;;;;5044895;28;20293;-42
2021/12/16 09:23:55;;;;;;;5.15;2.55;;;20.90;60.60;;;;;;5048892;28;20195;-42
2021/12/16 09:26:27;;;;;;;6.80;2.97;;;20.90;60.60;;;;;;5046397;28;20263;-51
2021/12/16 09:28:58;;;;;;;3.22;2.55;;;20.90;60.70;;;;;;5043166;28;20330;-42
2021/12/16 09:31:31;;;;;;;5.75;2.83;;;20.90;60.60;;;;;;5043213;28;20574;-42
2021/12/16 09:34:06;;;;;;;3.85;2.65;;;20.90;60.70;;;;;;5045801;28;20617;-41
2021/12/16 09:36:41;;;;;;;6.00;2.80;;;20.90;60.70;;;;;;5047187;28;20635;-41
2021/12/16 09:39:16;;;;;;;4.68;2.83;;;20.90;60.60;;;;;;5041855;28;20228;-48
2021/12/16 09:41:49;;;;;;;6.10;2.53;;;20.90;60.60;;;;;;5041247;28;20615;-54
2021/12/16 09:44:21;;;;;;;6.10;2.67;;;20.80;60.50;;;;;;5046753;28;20299;-54
2021/12/16 09:46:53;;;;;;;4.22;2.38;;;20.80;60.50;;;;;;5045001;28;20296;-42
2021/12/16 09:49:24;;;;;;;4.15;2.63;;;20.80;60.50;;;;;;5044280;28;20319;-41
2021/12/16 09:51:59;;;;;;;3.28;2.22;;;20.80;60.60;;;;;;5041167;28;20279;-50
2021/12/16 09:54:34;;;;;;;4.32;2.45;;;20.80;61.50;;;;;;5044488;28;20226;-41
2021/12/16 09:57:05;;;;;;;3.38;2.17;;;20.80;60.70;;;;;;5045483;28;20278;-41
2021/12/16 09:59:39;;;;;;;4.72;2.53;;;20.80;60.80;;;;;;5042563;28;20219;-41
2021/12/16 10:02:13;;;;;;;3.25;2.28;;;20.70;60.70;;;;;;5043391;28;20294;-48
2021/12/16 10:04:43;;;;;;;3.53;2.30;;;20.70;60.80;;;;;;5045004;28;20214;-41
2021/12/16 10:07:18;;;;;;;3.72;2.30;;;20.70;60.70;;;;;;5046319;28;20875;-47
2021/12/16 10:09:50;;;;;;;3.55;2.17;;;20.70;60.70;;;;;;5040336;28;20321;-47
2021/12/16 10:12:26;;;;;;;4.95;2.20;;;20.70;60.60;;;;;;5039153;28;20231;-41
2021/12/16 10:17:46;;;;;;;3.60;2.08;;;20.70;60.70;;;;;;5021482;28;20206;-46
2021/12/16 10:20:22;;;;;;;3.60;2.20;;;20.70;60.60;;;;;;5046051;28;20857;-48
2021/12/16 10:23:04;;;;;;;5.32;2.42;;;20.70;60.60;;;;;;5041356;28;20294;-54
2021/12/16 10:25:39;;;;;;;3.25;2.13;;;20.70;60.60;;;;;;5042703;28;20550;-42
2021/12/16 10:28:13;;;;;;;3.92;2.10;;;20.70;60.60;;;;;;5046538;28;20301;-43
2021/12/16 10:30:51;;;;;;;4.38;2.15;;;20.60;60.60;;;;;;5046890;28;20191;-55
2021/12/16 10:33:28;;;;;;;4.13;2.40;;;20.60;60.70;;;;;;5042924;28;20279;-45
2021/12/16 10:36:07;;;;;;;2.45;1.95;;;20.60;60.60;;;;;;5043112;28;20196;-49
2021/12/16 10:38:42;;;;;;;4.18;2.08;;;20.60;60.60;;;;;;5040864;28;20254;-58
2021/12/16 10:41:16;;;;;;;4.20;2.30;;;20.60;60.60;;;;;;5046709;28;20733;-43
2021/12/16 10:43:49;;;;;;;4.47;2.60;;;20.60;60.80;;;;;;5044770;28;20706;-41
2021/12/16 10:46:22;;;;;;;3.53;2.20;;;20.60;60.80;;;;;;5037674;28;20294;-49
2021/12/16 10:48:54;;;;;;;3.35;2.03;;;20.60;60.80;;;;;;5040295;28;20724;-50
2021/12/16 10:51:30;;;;;;;3.67;2.40;;;20.60;60.90;;;;;;5045634;28;20287;-43
2021/12/16 10:54:15;;;;;;;3.20;2.47;;;20.60;60.90;;;;;;5028078;28;20629;-54
2021/12/16 10:56:49;;;;;;;2.67;1.92;;;20.60;61.00;;;;;;5023302;28;20310;-50
2021/12/16 10:59:23;;;;;;;3.30;2.17;;;20.60;60.90;;;;;;5023263;28;20382;-54
2021/12/16 11:02:00;;;;;;;6.05;2.63;;;20.60;60.80;;;;;;5020486;28;20196;-42
2021/12/16 11:04:35;;;;;;;3.85;2.40;;;20.50;60.60;;;;;;5020065;28;20227;-45
2021/12/16 11:07:11;;;;;;;3.25;2.08;;;20.50;60.70;;;;;;5021938;28;20949;-41
2021/12/16 11:09:53;;;;;;;3.95;2.67;;;20.50;60.60;;;;;;5024158;28;20302;-50
2021/12/16 11:12:31;;;;;;;4.15;2.10;;;20.50;60.60;;;;;;5019981;28;20214;-47
2021/12/16 11:15:05;;;;;;;3.08;2.08;;;20.50;60.60;;;;;;5019702;28;20704;-42
2021/12/16 11:17:37;;;;;;;3.05;1.92;;;20.50;60.60;;;;;;5021707;28;20284;-43
2021/12/16 11:20:13;;;;;;;3.97;2.30;;;20.50;60.60;;;;;;5021605;28;20315;-51
2021/12/16 11:22:44;;;;;;;3.42;2.10;;;20.40;60.60;;;;;;5021171;28;20198;-51
2021/12/16 11:25:20;;;;;;;2.83;2.08;;;20.40;60.60;;;;;;5028564;28;20235;-54
2021/12/16 11:27:54;;;;;;;3.88;2.00;;;20.40;60.60;;;;;;5028871;28;20327;-43
2021/12/16 11:30:34;;;;;;;3.33;2.38;;;20.40;60.70;;;;;;5017547;28;20341;-45
2021/12/16 11:33:12;;;;;;;4.00;2.20;;;20.40;60.70;;;;;;5021222;28;20235;-44
2021/12/16 11:35:52;;;;;;;2.92;2.00;;;20.40;60.80;;;;;;5026387;28;20304;-48
2021/12/16 11:38:27;;;;;;;2.42;1.90;;;20.40;60.90;;;;;;5029068;28;20313;-48
2021/12/16 11:41:12;;;;;;;3.33;2.08;;;20.40;60.90;;;;;;5027742;28;20203;-52
2021/12/16 11:44:03;;;;;;;3.83;2.17;;;20.40;60.90;;;;;;5026028;28;20291;-48
2021/12/16 11:46:38;;;;;;;2.38;1.80;;;20.40;60.90;;;;;;5027062;28;20197;-43
2021/12/16 11:49:13;;;;;;;3.35;2.13;;;20.40;60.80;;;;;;5027284;28;20306;-43
2021/12/16 11:51:46;;;;;;;2.55;1.90;;;20.40;60.70;;;;;;5027737;28;20200;-44
2021/12/16 11:54:24;;;;;;;2.78;2.20;;;20.40;60.70;;;;;;5026414;28;20299;-49
2021/12/16 11:57:01;;;;;;;3.30;1.90;;;20.30;60.60;;;;;;5027061;28;20286;-41
2021/12/16 11:59:34;;;;;;;2.85;1.80;;;20.30;60.60;;;;;;5027330;28;20299;-42
2021/12/16 12:02:05;;;;;;;3.80;1.90;;;20.30;61.50;;;;;;5011230;28;20203;-51
2021/12/16 12:04:38;;;;;;;3.33;2.10;;;20.30;60.60;;;;;;5026076;28;20284;-46
2021/12/16 12:07:17;;;;;;;3.20;2.10;;;20.30;60.60;;;;;;5029289;28;20283;-54
2021/12/16 12:09:50;;;;;;;3.58;2.10;;;20.30;60.60;;;;;;5028904;28;20735;-50
2021/12/16 12:12:42;;;;;;;3.10;2.00;;;20.30;60.70;;;;;;5017234;28;20738;-50
2021/12/16 12:15:14;;;;;;;3.97;2.03;;;20.30;60.70;;;;;;5032407;28;20192;-43
2021/12/16 12:17:52;;;;;;;4.25;1.95;;;20.30;60.70;;;;;;5031001;28;20303;-46
2021/12/16 12:20:27;;;;;;;3.20;2.40;;;20.30;60.80;;;;;;5030497;28;20587;-49
2021/12/16 12:22:58;;;;;;;2.15;1.88;;;20.30;60.90;;;;;;5028919;28;20287;-41
2021/12/16 12:25:29;;;;;;;2.80;2.20;;;20.30;61.00;;;;;;5032939;28;20283;-55
2021/12/16 12:28:01;;;;;;;2.13;1.80;;;20.20;60.90;;;;;;5031472;28;20318;-47
2021/12/16 12:30:32;;;;;;;2.45;1.83;;;20.20;60.90;;;;;;5031897;28;20247;-51
2021/12/16 12:33:02;;;;;;;2.30;1.85;;;20.20;60.90;;;;;;5030144;28;20279;-44
2021/12/16 12:35:33;;;;;;;3.40;2.05;;;20.20;60.80;;;;;;5032349;28;20227;-41
2021/12/16 12:38:04;;;;;;;2.25;1.95;;;20.20;60.80;;;;;;5031482;28;20270;-45
2021/12/16 12:40:37;;;;;;;2.90;1.75;;;20.20;60.80;;;;;;5030148;28;20256;-52
2021/12/16 12:43:13;;;;;;;1.88;1.58;;;20.20;60.70;;;;;;5030999;28;20200;-47
2021/12/16 12:45:44;;;;;;;3.45;2.08;;;20.20;60.70;;;;;;5033693;28;20195;-57
2021/12/16 12:48:17;;;;;;;2.75;1.80;;;20.20;60.70;;;;;;5030752;28;20302;-46
2021/12/16 12:50:50;;;;;;;2.47;1.70;;;20.20;60.70;;;;;;5029043;28;20298;-46
2021/12/16 12:53:23;;;;;;;2.40;1.98;;;20.10;60.60;;;;;;5029706;28;20282;-53
2021/12/16 12:55:56;;;;;;;2.97;2.00;;;20.10;60.60;;;;;;5014594;28;20287;-55
2021/12/16 12:58:33;;;;;;;2.78;1.90;;;20.10;60.60;;;;;;5031382;28;20721;-45
2021/12/16 13:01:08;;;;;;;1.95;1.75;;;20.10;60.70;;;;;;5029972;28;20239;-45
2021/12/16 13:03:40;;;;;;;2.05;1.85;;;20.10;60.70;;;;;;5023768;28;21683;-51
2021/12/16 13:06:13;;;;;;;1.70;1.60;;;20.10;60.70;;;;;;5017045;28;20203;-51
2021/12/16 13:08:46;;;;;;;1.88;1.63;;;20.10;60.80;;;;;;5030363;28;20295;-45
2021/12/16 13:11:18;;;;;;;3.42;1.95;;;20.10;60.80;;;;;;5020464;28;20309;-47
2021/12/16 13:14:09;;;;;;;2.13;1.73;;;20.10;60.90;;;;;;5021111;28;20235;-42
2021/12/16 13:17:03;;;;;;;2.38;1.65;;;20.00;60.80;;;;;;5030166;28;20201;-43
2021/12/16 13:28:38;;;;;;;1.63;1.50;;;20.00;61.10;;;;;;4999530;28;20222;-57
2021/12/16 13:31:32;;;;;;;2.10;1.75;;;20.00;60.60;;;;;;5027932;28;20650;-55
2021/12/16 13:34:02;;;;;;;2.70;1.90;;;20.00;60.60;;;;;;5031308;28;20207;-48
2021/12/16 13:36:46;;;;;;;1.70;1.60;;;20.00;60.60;;;;;;5030710;28;20228;-50
2021/12/16 13:39:23;;;;;;;2.15;1.70;;;20.00;60.60;;;;;;5029992;28;20220;-47
2021/12/16 13:42:12;;;;;;;2.15;1.50;;;20.00;60.70;;;;;;5028921;28;20282;-42
2021/12/16 13:45:05;;;;;;;1.60;1.50;;;19.90;60.70;;;;;;5029086;28;20203;-50
2021/12/16 14:06:13;;;;;;;1.83;1.40;;;19.90;60.80;;;;;;5028783;28;20202;-42
2021/12/16 14:08:46;;;;;;;2.35;1.52;;;19.90;60.80;;;;;;5027387;28;20219;-41
2021/12/16 14:14:51;;;;;;;1.88;1.60;;;19.90;60.80;;;;;;5026934;28;20207;-41
2021/12/16 14:23:30;;;;;;;2.15;1.75;;;19.80;60.70;;;;;;5011821;28;20247;-42
2021/12/16 14:26:21;;;;;;;1.83;1.67;;;19.80;60.80;;;;;;5028594;28;20204;-59
2021/12/16 14:32:36;;;;;;;2.97;1.70;;;19.80;60.70;;;;;;5028568;28;20610;-42
2021/12/16 14:34:59;;;;;;;1.98;1.55;;;19.80;60.80;;;;;;5026826;28;20196;-49
2021/12/16 14:37:36;;;;;;;2.25;1.60;;;19.80;60.90;;;;;;5032393;28;20196;-46
2021/12/16 14:40:34;;;;;;;1.77;1.67;;;19.80;60.90;;;;;;5030660;28;20274;-44
2021/12/16 14:43:17;;;;;;;2.33;1.85;;;19.80;61.00;;;;;;5030189;28;20235;-51
2021/12/16 14:45:56;;;;;;;2.20;1.42;;;19.80;60.90;;;;;;5027999;28;20299;-48
2021/12/16 14:48:32;;;;;;;1.63;1.30;;;19.80;60.90;;;;;;5026206;28;20216;-42
2021/12/16 14:51:04;;;;;;;1.77;1.50;;;19.80;61.00;;;;;;5029153;28;20216;-55
2021/12/16 14:53:40;;;;;;;1.90;1.60;;;19.70;60.80;;;;;;5029760;28;20223;-42
2021/12/16 14:56:14;;;;;;;1.80;1.55;;;19.70;60.90;;;;;;5016226;28;20197;-41
2021/12/16 14:58:47;;;;;;;1.40;1.30;;;19.70;60.90;;;;;;5024946;28;20309;-42
2021/12/16 15:01:20;;;;;;;1.83;1.65;;;19.70;60.90;;;;;;5026758;28;20312;-48
2021/12/16 15:03:53;;;;;;;1.73;1.48;;;19.70;60.90;;;;;;5013807;28;20242;-42
2021/12/16 15:06:30;;;;;;;1.63;1.52;;;19.70;60.80;;;;;;5029632;28;20239;-52
2021/12/16 15:09:12;;;;;;;1.83;1.38;;;19.70;60.90;;;;;;5026946;28;20211;-44
2021/12/16 15:11:50;;;;;;;1.80;1.55;;;19.70;60.80;;;;;;5027785;28;20664;-50
2021/12/16 15:14:32;;;;;;;1.70;1.38;;;19.70;60.80;;;;;;5027905;28;20192;-42
2021/12/16 15:17:09;;;;;;;1.92;1.50;;;19.70;60.80;;;;;;5026895;28;20664;-46
2021/12/16 15:36:46;;;;;;;1.80;1.50;;;19.60;60.90;;;;;;4999017;28;20209;-41
2021/12/16 15:39:43;;;;;;;1.92;1.40;;;19.60;60.80;;;;;;5026445;28;20223;-41
2021/12/16 15:45:07;;;;;;;1.13;1.00;;;19.60;60.90;;;;;;5025703;28;20207;-42
2021/12/16 15:47:42;;;;;;;1.48;1.30;;;19.60;60.90;;;;;;5012710;28;20275;-47
2021/12/16 15:50:14;;;;;;;1.25;1.15;;;19.60;60.90;;;;;;5028248;28;20310;-44
2021/12/16 15:52:46;;;;;;;2.35;1.67;;;19.60;61.00;;;;;;5026201;28;20417;-54
2021/12/16 15:55:28;;;;;;;2.20;1.60;;;19.60;61.70;;;;;;5026749;28;20718;-44
2021/12/16 15:58:07;;;;;;;1.67;1.45;;;19.60;61.00;;;;;;5027058;28;20786;-42
2021/12/16 16:00:38;;;;;;;1.63;1.40;;;19.60;61.00;;;;;;5028299;28;20290;-45
2021/12/16 16:03:10;;;;;;;2.08;1.45;;;19.60;61.00;;;;;;5026467;28;20192;-42
2021/12/16 16:05:42;;;;;;;1.50;1.40;;;19.60;61.00;;;;;;5021976;28;20283;-44
2021/12/16 16:08:15;;;;;;;2.00;1.50;;;19.60;61.00;;;;;;5030318;28;20315;-42
2021/12/16 16:10:48;;;;;;;2.00;1.70;;;19.60;61.00;;;;;;5027043;28;20311;-41
2021/12/16 16:13:23;;;;;;;1.98;1.40;;;19.60;61.00;;;;;;5026986;28;20630;-44